sensor_id;sensor_type;location;lat;lon;timestamp;P1;durP1;ratioP1;P2;durP2;ratioP2
7795;SDS011;3942;51.518;6.912;2023-02-10T00:02:46;83.90;;;41.08;;
7795;SDS011;3942;51.518;6.912;2023-02-10T00:07:48;57.10;;;29.25;;
7795;SDS011;3942;51.518;6.912;2023-02-10T00:12:52;55.30;;;27.00;;
7795;SDS011;3942;51.518;6.912;2023-02-10T00:17:54;50.95;;;26.52;;
7795;SDS011;3942;51.518;6.912;2023-02-10T00:22:56;54.70;;;27.15;;
7795;SDS011;3942;51.518;6.912;2023-02-10T00:27:59;60.58;;;28.10;;
7795;SDS011;3942;51.518;6.912;2023-02-10T00:33:02;57.00;;;29.40;;
7795;SDS011;3942;51.518;6.912;2023-02-10T00:38:04;58.78;;;27.92;;
7795;SDS011;3942;51.518;6.912;2023-02-10T00:43:09;60.17;;;29.00;;
7795;SDS011;3942;51.518;6.912;2023-02-10T00:48:11;56.13;;;27.90;;
7795;SDS011;3942;51.518;6.912;2023-02-10T00:53:13;56.95;;;27.60;;
7795;SDS011;3942;51.518;6.912;2023-02-10T00:58:16;54.67;;;28.13;;
7795;SDS011;3942;51.518;6.912;2023-02-10T01:03:18;57.28;;;28.30;;
7795;SDS011;3942;51.518;6.912;2023-02-10T01:08:21;57.10;;;27.98;;
7795;SDS011;3942;51.518;6.912;2023-02-10T01:13:24;63.38;;;29.02;;
7795;SDS011;3942;51.518;6.912;2023-02-10T01:18:26;54.75;;;27.40;;
7795;SDS011;3942;51.518;6.912;2023-02-10T01:23:28;53.70;;;26.02;;
7795;SDS011;3942;51.518;6.912;2023-02-10T01:28:32;56.22;;;27.23;;
7795;SDS011;3942;51.518;6.912;2023-02-10T01:33:34;57.17;;;28.67;;
7795;SDS011;3942;51.518;6.912;2023-02-10T01:38:36;58.22;;;27.40;;
7795;SDS011;3942;51.518;6.912;2023-02-10T01:43:55;56.85;;;28.05;;
7795;SDS011;3942;51.518;6.912;2023-02-10T01:49:00;66.10;;;28.73;;
7795;SDS011;3942;51.518;6.912;2023-02-10T01:54:03;57.33;;;28.60;;
7795;SDS011;3942;51.518;6.912;2023-02-10T01:59:07;67.18;;;31.55;;
7795;SDS011;3942;51.518;6.912;2023-02-10T02:04:09;63.22;;;30.17;;
7795;SDS011;3942;51.518;6.912;2023-02-10T02:09:11;60.85;;;29.02;;
7795;SDS011;3942;51.518;6.912;2023-02-10T02:14:18;75.78;;;39.72;;
7795;SDS011;3942;51.518;6.912;2023-02-10T02:19:37;66.22;;;31.88;;
7795;SDS011;3942;51.518;6.912;2023-02-10T02:25:30;58.88;;;31.00;;
7795;SDS011;3942;51.518;6.912;2023-02-10T02:30:52;57.47;;;29.58;;
7795;SDS011;3942;51.518;6.912;2023-02-10T02:36:18;57.17;;;30.08;;
7795;SDS011;3942;51.518;6.912;2023-02-10T02:46:27;61.80;;;29.25;;
7795;SDS011;3942;51.518;6.912;2023-02-10T02:51:35;69.63;;;33.53;;
7795;SDS011;3942;51.518;6.912;2023-02-10T02:56:38;70.28;;;33.17;;
7795;SDS011;3942;51.518;6.912;2023-02-10T03:01:45;67.38;;;33.10;;
7795;SDS011;3942;51.518;6.912;2023-02-10T03:06:53;77.57;;;34.58;;
7795;SDS011;3942;51.518;6.912;2023-02-10T03:11:55;74.75;;;34.53;;
7795;SDS011;3942;51.518;6.912;2023-02-10T03:16:57;79.68;;;35.33;;
7795;SDS011;3942;51.518;6.912;2023-02-10T03:22:00;74.07;;;33.92;;
7795;SDS011;3942;51.518;6.912;2023-02-10T03:27:03;73.97;;;34.78;;
7795;SDS011;3942;51.518;6.912;2023-02-10T03:32:05;68.35;;;34.75;;
7795;SDS011;3942;51.518;6.912;2023-02-10T03:37:08;61.92;;;31.30;;
7795;SDS011;3942;51.518;6.912;2023-02-10T03:42:10;75.97;;;35.33;;
7795;SDS011;3942;51.518;6.912;2023-02-10T03:47:13;66.35;;;34.53;;
7795;SDS011;3942;51.518;6.912;2023-02-10T03:52:16;70.72;;;32.88;;
7795;SDS011;3942;51.518;6.912;2023-02-10T03:57:18;66.32;;;32.65;;
7795;SDS011;3942;51.518;6.912;2023-02-10T04:02:20;82.10;;;40.33;;
7795;SDS011;3942;51.518;6.912;2023-02-10T04:07:23;66.93;;;32.70;;
7795;SDS011;3942;51.518;6.912;2023-02-10T04:12:25;68.40;;;33.85;;
7795;SDS011;3942;51.518;6.912;2023-02-10T04:17:27;68.32;;;32.33;;
7795;SDS011;3942;51.518;6.912;2023-02-10T04:22:31;63.15;;;31.33;;
7795;SDS011;3942;51.518;6.912;2023-02-10T04:27:33;68.53;;;33.08;;
7795;SDS011;3942;51.518;6.912;2023-02-10T04:32:35;67.95;;;33.05;;
7795;SDS011;3942;51.518;6.912;2023-02-10T04:37:39;66.28;;;31.40;;
7795;SDS011;3942;51.518;6.912;2023-02-10T04:42:41;67.85;;;29.77;;
7795;SDS011;3942;51.518;6.912;2023-02-10T04:47:43;62.53;;;32.70;;
7795;SDS011;3942;51.518;6.912;2023-02-10T04:52:46;69.40;;;32.40;;
7795;SDS011;3942;51.518;6.912;2023-02-10T04:57:48;68.82;;;34.28;;
7795;SDS011;3942;51.518;6.912;2023-02-10T05:02:50;64.70;;;31.30;;
7795;SDS011;3942;51.518;6.912;2023-02-10T05:07:54;69.65;;;33.05;;
7795;SDS011;3942;51.518;6.912;2023-02-10T05:12:56;71.32;;;31.67;;
7795;SDS011;3942;51.518;6.912;2023-02-10T05:17:58;66.10;;;33.00;;
7795;SDS011;3942;51.518;6.912;2023-02-10T05:23:02;64.25;;;32.58;;
7795;SDS011;3942;51.518;6.912;2023-02-10T05:28:04;67.22;;;31.80;;
7795;SDS011;3942;51.518;6.912;2023-02-10T05:33:07;62.55;;;31.27;;
7795;SDS011;3942;51.518;6.912;2023-02-10T05:38:10;66.18;;;32.83;;
7795;SDS011;3942;51.518;6.912;2023-02-10T05:43:15;59.45;;;30.60;;
7795;SDS011;3942;51.518;6.912;2023-02-10T05:48:17;70.20;;;33.20;;
7795;SDS011;3942;51.518;6.912;2023-02-10T05:53:20;76.93;;;34.08;;
7795;SDS011;3942;51.518;6.912;2023-02-10T05:58:22;69.05;;;33.38;;
7795;SDS011;3942;51.518;6.912;2023-02-10T06:03:28;77.65;;;32.90;;
7795;SDS011;3942;51.518;6.912;2023-02-10T06:08:31;80.68;;;33.40;;
7795;SDS011;3942;51.518;6.912;2023-02-10T06:13:33;76.07;;;37.30;;
7795;SDS011;3942;51.518;6.912;2023-02-10T06:18:36;67.80;;;35.58;;
7795;SDS011;3942;51.518;6.912;2023-02-10T06:23:40;75.40;;;34.72;;
7795;SDS011;3942;51.518;6.912;2023-02-10T06:28:42;71.60;;;32.50;;
7795;SDS011;3942;51.518;6.912;2023-02-10T06:33:44;67.45;;;32.17;;
7795;SDS011;3942;51.518;6.912;2023-02-10T06:38:48;71.80;;;34.08;;
7795;SDS011;3942;51.518;6.912;2023-02-10T06:43:50;71.93;;;33.70;;
7795;SDS011;3942;51.518;6.912;2023-02-10T06:48:52;79.60;;;37.70;;
7795;SDS011;3942;51.518;6.912;2023-02-10T06:53:55;81.18;;;34.28;;
7795;SDS011;3942;51.518;6.912;2023-02-10T06:58:58;74.40;;;34.85;;
7795;SDS011;3942;51.518;6.912;2023-02-10T07:04:00;73.38;;;36.03;;
7795;SDS011;3942;51.518;6.912;2023-02-10T07:09:03;78.28;;;36.85;;
7795;SDS011;3942;51.518;6.912;2023-02-10T07:14:05;79.80;;;33.22;;
7795;SDS011;3942;51.518;6.912;2023-02-10T07:19:07;79.10;;;34.63;;
7795;SDS011;3942;51.518;6.912;2023-02-10T07:24:11;83.78;;;37.35;;
7795;SDS011;3942;51.518;6.912;2023-02-10T07:29:14;74.57;;;34.88;;
7795;SDS011;3942;51.518;6.912;2023-02-10T07:34:16;79.60;;;37.83;;
7795;SDS011;3942;51.518;6.912;2023-02-10T07:39:21;89.40;;;38.17;;
7795;SDS011;3942;51.518;6.912;2023-02-10T07:44:23;79.50;;;37.58;;
7795;SDS011;3942;51.518;6.912;2023-02-10T07:49:25;75.57;;;36.50;;
7795;SDS011;3942;51.518;6.912;2023-02-10T07:54:30;73.60;;;34.97;;
7795;SDS011;3942;51.518;6.912;2023-02-10T07:59:32;77.63;;;35.90;;
7795;SDS011;3942;51.518;6.912;2023-02-10T08:04:34;74.13;;;33.35;;
7795;SDS011;3942;51.518;6.912;2023-02-10T08:09:37;77.90;;;34.78;;
7795;SDS011;3942;51.518;6.912;2023-02-10T08:14:40;69.00;;;34.72;;
7795;SDS011;3942;51.518;6.912;2023-02-10T08:19:42;68.45;;;33.33;;
7795;SDS011;3942;51.518;6.912;2023-02-10T08:24:45;74.30;;;34.55;;
7795;SDS011;3942;51.518;6.912;2023-02-10T08:29:47;72.32;;;34.83;;
7795;SDS011;3942;51.518;6.912;2023-02-10T08:34:49;73.25;;;34.30;;
7795;SDS011;3942;51.518;6.912;2023-02-10T08:39:53;72.82;;;36.22;;
7795;SDS011;3942;51.518;6.912;2023-02-10T08:44:55;68.03;;;34.25;;
7795;SDS011;3942;51.518;6.912;2023-02-10T08:49:57;69.13;;;33.78;;
7795;SDS011;3942;51.518;6.912;2023-02-10T08:55:00;69.85;;;35.72;;
7795;SDS011;3942;51.518;6.912;2023-02-10T09:00:03;64.38;;;32.65;;
7795;SDS011;3942;51.518;6.912;2023-02-10T09:05:05;71.43;;;33.85;;
7795;SDS011;3942;51.518;6.912;2023-02-10T09:10:09;64.50;;;33.67;;
7795;SDS011;3942;51.518;6.912;2023-02-10T09:15:12;71.05;;;35.55;;
7795;SDS011;3942;51.518;6.912;2023-02-10T09:20:14;63.38;;;33.33;;
7795;SDS011;3942;51.518;6.912;2023-02-10T09:25:17;73.07;;;34.50;;
7795;SDS011;3942;51.518;6.912;2023-02-10T09:30:19;68.15;;;34.90;;
7795;SDS011;3942;51.518;6.912;2023-02-10T09:35:22;74.90;;;37.88;;
7795;SDS011;3942;51.518;6.912;2023-02-10T09:40:25;74.03;;;38.58;;
7795;SDS011;3942;51.518;6.912;2023-02-10T09:45:31;73.75;;;35.75;;
7795;SDS011;3942;51.518;6.912;2023-02-10T09:50:38;66.13;;;36.25;;
7795;SDS011;3942;51.518;6.912;2023-02-10T09:55:45;63.65;;;33.10;;
7795;SDS011;3942;51.518;6.912;2023-02-10T10:00:50;65.53;;;33.72;;
7795;SDS011;3942;51.518;6.912;2023-02-10T10:05:58;65.38;;;34.25;;
7795;SDS011;3942;51.518;6.912;2023-02-10T10:11:05;67.07;;;33.38;;
7795;SDS011;3942;51.518;6.912;2023-02-10T10:16:13;67.30;;;33.35;;
7795;SDS011;3942;51.518;6.912;2023-02-10T10:21:22;68.63;;;33.15;;
7795;SDS011;3942;51.518;6.912;2023-02-10T10:26:38;72.65;;;33.10;;
7795;SDS011;3942;51.518;6.912;2023-02-10T10:31:41;72.47;;;33.58;;
7795;SDS011;3942;51.518;6.912;2023-02-10T10:36:46;73.32;;;35.92;;
7795;SDS011;3942;51.518;6.912;2023-02-10T10:41:50;70.57;;;34.88;;
7795;SDS011;3942;51.518;6.912;2023-02-10T10:47:02;74.13;;;35.95;;
7795;SDS011;3942;51.518;6.912;2023-02-10T10:52:17;78.22;;;37.45;;
7795;SDS011;3942;51.518;6.912;2023-02-10T11:02:31;66.35;;;32.15;;
7795;SDS011;3942;51.518;6.912;2023-02-10T11:07:33;67.20;;;33.88;;
7795;SDS011;3942;51.518;6.912;2023-02-10T11:12:38;68.60;;;33.60;;
7795;SDS011;3942;51.518;6.912;2023-02-10T11:17:41;73.75;;;36.22;;
7795;SDS011;3942;51.518;6.912;2023-02-10T11:22:43;67.50;;;36.53;;
7795;SDS011;3942;51.518;6.912;2023-02-10T11:27:50;68.00;;;35.33;;
7795;SDS011;3942;51.518;6.912;2023-02-10T11:32:52;68.55;;;32.33;;
7795;SDS011;3942;51.518;6.912;2023-02-10T11:37:55;63.38;;;32.15;;
7795;SDS011;3942;51.518;6.912;2023-02-10T11:42:59;66.80;;;32.38;;
7795;SDS011;3942;51.518;6.912;2023-02-10T11:48:02;66.43;;;31.60;;
7795;SDS011;3942;51.518;6.912;2023-02-10T11:53:05;57.83;;;26.63;;
7795;SDS011;3942;51.518;6.912;2023-02-10T11:58:30;57.42;;;27.15;;
7795;SDS011;3942;51.518;6.912;2023-02-10T12:03:56;47.27;;;24.13;;
7795;SDS011;3942;51.518;6.912;2023-02-10T12:09:04;41.40;;;20.08;;
7795;SDS011;3942;51.518;6.912;2023-02-10T12:14:19;43.47;;;21.08;;
7795;SDS011;3942;51.518;6.912;2023-02-10T12:19:26;40.47;;;19.83;;
7795;SDS011;3942;51.518;6.912;2023-02-10T12:24:47;38.97;;;16.60;;
7795;SDS011;3942;51.518;6.912;2023-02-10T12:29:55;38.10;;;15.07;;
7795;SDS011;3942;51.518;6.912;2023-02-10T12:40:28;28.38;;;14.00;;
7795;SDS011;3942;51.518;6.912;2023-02-10T12:45:38;44.53;;;18.92;;
7795;SDS011;3942;51.518;6.912;2023-02-10T12:50:47;25.17;;;11.45;;
7795;SDS011;3942;51.518;6.912;2023-02-10T12:56:04;28.35;;;11.93;;
7795;SDS011;3942;51.518;6.912;2023-02-10T13:01:10;24.83;;;10.05;;
7795;SDS011;3942;51.518;6.912;2023-02-10T13:06:17;29.15;;;10.25;;
7795;SDS011;3942;51.518;6.912;2023-02-10T13:11:21;33.85;;;12.90;;
7795;SDS011;3942;51.518;6.912;2023-02-10T13:16:32;20.08;;;9.50;;
7795;SDS011;3942;51.518;6.912;2023-02-10T13:21:34;30.52;;;11.10;;
7795;SDS011;3942;51.518;6.912;2023-02-10T13:26:43;28.35;;;11.30;;
7795;SDS011;3942;51.518;6.912;2023-02-10T13:31:59;33.08;;;15.13;;
7795;SDS011;3942;51.518;6.912;2023-02-10T13:37:03;31.95;;;15.15;;
7795;SDS011;3942;51.518;6.912;2023-02-10T13:42:08;31.45;;;14.15;;
7795;SDS011;3942;51.518;6.912;2023-02-10T13:47:26;32.53;;;13.82;;
7795;SDS011;3942;51.518;6.912;2023-02-10T13:52:31;32.88;;;15.50;;
7795;SDS011;3942;51.518;6.912;2023-02-10T13:57:35;41.35;;;16.70;;
7795;SDS011;3942;51.518;6.912;2023-02-10T14:02:39;30.58;;;16.15;;
7795;SDS011;3942;51.518;6.912;2023-02-10T14:07:43;37.42;;;17.27;;
7795;SDS011;3942;51.518;6.912;2023-02-10T14:12:52;36.58;;;20.52;;
7795;SDS011;3942;51.518;6.912;2023-02-10T14:17:58;39.03;;;19.67;;
7795;SDS011;3942;51.518;6.912;2023-02-10T14:23:01;47.55;;;22.15;;
7795;SDS011;3942;51.518;6.912;2023-02-10T14:28:06;39.38;;;20.17;;
7795;SDS011;3942;51.518;6.912;2023-02-10T14:33:24;44.80;;;20.05;;
7795;SDS011;3942;51.518;6.912;2023-02-10T14:38:27;45.45;;;20.50;;
7795;SDS011;3942;51.518;6.912;2023-02-10T14:43:30;51.22;;;23.55;;
7795;SDS011;3942;51.518;6.912;2023-02-10T14:48:38;39.17;;;19.17;;
7795;SDS011;3942;51.518;6.912;2023-02-10T14:53:40;34.05;;;16.13;;
7795;SDS011;3942;51.518;6.912;2023-02-10T14:58:42;42.90;;;22.52;;
7795;SDS011;3942;51.518;6.912;2023-02-10T15:03:47;47.33;;;21.30;;
7795;SDS011;3942;51.518;6.912;2023-02-10T15:08:51;45.40;;;21.80;;
7795;SDS011;3942;51.518;6.912;2023-02-10T15:13:56;46.00;;;21.60;;
7795;SDS011;3942;51.518;6.912;2023-02-10T15:19:01;45.10;;;22.77;;
7795;SDS011;3942;51.518;6.912;2023-02-10T15:24:05;43.50;;;24.00;;
7795;SDS011;3942;51.518;6.912;2023-02-10T15:29:20;48.00;;;23.88;;
7795;SDS011;3942;51.518;6.912;2023-02-10T15:34:25;40.83;;;24.08;;
7795;SDS011;3942;51.518;6.912;2023-02-10T15:39:30;40.42;;;21.80;;
7795;SDS011;3942;51.518;6.912;2023-02-10T15:44:34;39.83;;;22.77;;
7795;SDS011;3942;51.518;6.912;2023-02-10T15:49:40;50.58;;;24.80;;
7795;SDS011;3942;51.518;6.912;2023-02-10T15:54:43;42.25;;;22.67;;
7795;SDS011;3942;51.518;6.912;2023-02-10T15:59:45;41.13;;;20.85;;
7795;SDS011;3942;51.518;6.912;2023-02-10T16:04:52;36.80;;;21.33;;
7795;SDS011;3942;51.518;6.912;2023-02-10T16:09:54;44.03;;;23.42;;
7795;SDS011;3942;51.518;6.912;2023-02-10T16:14:56;48.17;;;24.20;;
7795;SDS011;3942;51.518;6.912;2023-02-10T16:20:00;42.50;;;21.17;;
7795;SDS011;3942;51.518;6.912;2023-02-10T16:25:04;39.92;;;20.52;;
7795;SDS011;3942;51.518;6.912;2023-02-10T16:30:06;41.58;;;22.00;;
7795;SDS011;3942;51.518;6.912;2023-02-10T16:35:15;36.88;;;19.42;;
7795;SDS011;3942;51.518;6.912;2023-02-10T16:40:19;43.55;;;23.40;;
7795;SDS011;3942;51.518;6.912;2023-02-10T16:45:23;37.92;;;19.25;;
7795;SDS011;3942;51.518;6.912;2023-02-10T16:50:28;44.30;;;20.35;;
7795;SDS011;3942;51.518;6.912;2023-02-10T16:55:30;30.67;;;18.13;;
7795;SDS011;3942;51.518;6.912;2023-02-10T17:00:32;38.10;;;20.00;;
7795;SDS011;3942;51.518;6.912;2023-02-10T17:05:35;33.17;;;19.58;;
7795;SDS011;3942;51.518;6.912;2023-02-10T17:10:37;34.85;;;18.83;;
7795;SDS011;3942;51.518;6.912;2023-02-10T17:15:39;40.53;;;19.88;;
7795;SDS011;3942;51.518;6.912;2023-02-10T17:20:43;33.55;;;19.13;;
7795;SDS011;3942;51.518;6.912;2023-02-10T17:25:46;38.72;;;19.80;;
7795;SDS011;3942;51.518;6.912;2023-02-10T17:30:48;40.22;;;19.38;;
7795;SDS011;3942;51.518;6.912;2023-02-10T17:35:51;41.40;;;21.52;;
7795;SDS011;3942;51.518;6.912;2023-02-10T17:40:53;41.83;;;21.33;;
7795;SDS011;3942;51.518;6.912;2023-02-10T17:45:55;61.05;;;31.05;;
7795;SDS011;3942;51.518;6.912;2023-02-10T17:50:59;39.33;;;19.48;;
7795;SDS011;3942;51.518;6.912;2023-02-10T17:56:04;40.95;;;21.55;;
7795;SDS011;3942;51.518;6.912;2023-02-10T18:01:06;37.30;;;18.67;;
7795;SDS011;3942;51.518;6.912;2023-02-10T18:06:22;47.70;;;21.25;;
7795;SDS011;3942;51.518;6.912;2023-02-10T18:11:26;44.80;;;21.30;;
7795;SDS011;3942;51.518;6.912;2023-02-10T18:16:30;42.35;;;20.05;;
7795;SDS011;3942;51.518;6.912;2023-02-10T18:21:34;40.53;;;20.80;;
7795;SDS011;3942;51.518;6.912;2023-02-10T18:26:36;44.53;;;22.77;;
7795;SDS011;3942;51.518;6.912;2023-02-10T18:31:38;37.95;;;21.67;;
7795;SDS011;3942;51.518;6.912;2023-02-10T18:36:42;50.78;;;22.88;;
7795;SDS011;3942;51.518;6.912;2023-02-10T18:41:44;42.58;;;21.77;;
7795;SDS011;3942;51.518;6.912;2023-02-10T18:46:46;46.40;;;23.35;;
7795;SDS011;3942;51.518;6.912;2023-02-10T18:51:50;46.17;;;22.95;;
7795;SDS011;3942;51.518;6.912;2023-02-10T18:56:53;49.95;;;24.77;;
7795;SDS011;3942;51.518;6.912;2023-02-10T19:01:55;47.67;;;21.90;;
7795;SDS011;3942;51.518;6.912;2023-02-10T19:06:58;50.42;;;24.17;;
7795;SDS011;3942;51.518;6.912;2023-02-10T19:12:00;45.75;;;22.58;;
7795;SDS011;3942;51.518;6.912;2023-02-10T19:17:02;56.58;;;29.15;;
7795;SDS011;3942;51.518;6.912;2023-02-10T19:22:06;53.65;;;25.35;;
7795;SDS011;3942;51.518;6.912;2023-02-10T19:27:08;50.05;;;25.15;;
7795;SDS011;3942;51.518;6.912;2023-02-10T19:32:10;51.30;;;24.63;;
7795;SDS011;3942;51.518;6.912;2023-02-10T19:37:14;54.65;;;26.23;;
7795;SDS011;3942;51.518;6.912;2023-02-10T19:42:15;53.72;;;26.52;;
7795;SDS011;3942;51.518;6.912;2023-02-10T19:47:18;62.40;;;26.50;;
7795;SDS011;3942;51.518;6.912;2023-02-10T19:52:21;62.58;;;28.15;;
7795;SDS011;3942;51.518;6.912;2023-02-10T19:57:23;60.65;;;26.70;;
7795;SDS011;3942;51.518;6.912;2023-02-10T20:02:26;55.05;;;28.02;;
7795;SDS011;3942;51.518;6.912;2023-02-10T20:07:30;66.30;;;29.15;;
7795;SDS011;3942;51.518;6.912;2023-02-10T20:12:32;59.15;;;28.67;;
7795;SDS011;3942;51.518;6.912;2023-02-10T20:17:34;57.55;;;26.13;;
7795;SDS011;3942;51.518;6.912;2023-02-10T20:22:37;53.28;;;25.75;;
7795;SDS011;3942;51.518;6.912;2023-02-10T20:27:39;68.20;;;27.63;;
7795;SDS011;3942;51.518;6.912;2023-02-10T20:32:41;59.78;;;25.67;;
7795;SDS011;3942;51.518;6.912;2023-02-10T20:37:45;64.63;;;29.88;;
7795;SDS011;3942;51.518;6.912;2023-02-10T20:42:47;65.70;;;31.10;;
7795;SDS011;3942;51.518;6.912;2023-02-10T20:47:51;64.38;;;26.63;;
7795;SDS011;3942;51.518;6.912;2023-02-10T20:52:55;59.78;;;27.48;;
7795;SDS011;3942;51.518;6.912;2023-02-10T20:57:57;59.30;;;26.17;;
7795;SDS011;3942;51.518;6.912;2023-02-10T21:02:59;61.50;;;27.67;;
7795;SDS011;3942;51.518;6.912;2023-02-10T21:08:02;62.25;;;28.58;;
7795;SDS011;3942;51.518;6.912;2023-02-10T21:13:05;62.70;;;29.33;;
7795;SDS011;3942;51.518;6.912;2023-02-10T21:18:07;64.70;;;28.45;;
7795;SDS011;3942;51.518;6.912;2023-02-10T21:23:11;62.08;;;28.23;;
7795;SDS011;3942;51.518;6.912;2023-02-10T21:28:12;71.38;;;29.08;;
7795;SDS011;3942;51.518;6.912;2023-02-10T21:33:15;64.88;;;30.30;;
7795;SDS011;3942;51.518;6.912;2023-02-10T21:38:19;72.07;;;31.40;;
7795;SDS011;3942;51.518;6.912;2023-02-10T21:43:21;62.30;;;29.55;;
7795;SDS011;3942;51.518;6.912;2023-02-10T21:48:23;65.70;;;29.05;;
7795;SDS011;3942;51.518;6.912;2023-02-10T21:53:27;67.20;;;30.67;;
7795;SDS011;3942;51.518;6.912;2023-02-10T21:58:29;62.80;;;27.88;;
7795;SDS011;3942;51.518;6.912;2023-02-10T22:03:30;66.97;;;31.45;;
7795;SDS011;3942;51.518;6.912;2023-02-10T22:08:34;68.10;;;29.75;;
7795;SDS011;3942;51.518;6.912;2023-02-10T22:13:37;70.75;;;31.80;;
7795;SDS011;3942;51.518;6.912;2023-02-10T22:18:39;65.05;;;29.33;;
7795;SDS011;3942;51.518;6.912;2023-02-10T22:23:43;62.22;;;30.20;;
7795;SDS011;3942;51.518;6.912;2023-02-10T22:28:46;70.50;;;31.55;;
7795;SDS011;3942;51.518;6.912;2023-02-10T22:33:48;66.32;;;30.17;;
7795;SDS011;3942;51.518;6.912;2023-02-10T22:38:53;62.28;;;28.67;;
7795;SDS011;3942;51.518;6.912;2023-02-10T22:43:55;61.80;;;27.33;;
7795;SDS011;3942;51.518;6.912;2023-02-10T22:48:58;62.25;;;29.20;;
7795;SDS011;3942;51.518;6.912;2023-02-10T22:54:03;64.28;;;28.42;;
7795;SDS011;3942;51.518;6.912;2023-02-10T22:59:06;56.53;;;28.30;;
7795;SDS011;3942;51.518;6.912;2023-02-10T23:04:09;58.42;;;28.17;;
7795;SDS011;3942;51.518;6.912;2023-02-10T23:09:13;58.17;;;27.58;;
7795;SDS011;3942;51.518;6.912;2023-02-10T23:14:15;57.35;;;28.05;;
7795;SDS011;3942;51.518;6.912;2023-02-10T23:19:17;53.22;;;26.92;;
7795;SDS011;3942;51.518;6.912;2023-02-10T23:24:21;58.90;;;27.33;;
7795;SDS011;3942;51.518;6.912;2023-02-10T23:29:23;56.78;;;27.40;;
7795;SDS011;3942;51.518;6.912;2023-02-10T23:34:25;52.30;;;25.85;;
7795;SDS011;3942;51.518;6.912;2023-02-10T23:39:29;51.20;;;24.75;;
7795;SDS011;3942;51.518;6.912;2023-02-10T23:44:31;59.45;;;26.58;;
7795;SDS011;3942;51.518;6.912;2023-02-10T23:49:33;54.97;;;25.48;;
7795;SDS011;3942;51.518;6.912;2023-02-10T23:54:37;51.20;;;25.10;;
7795;SDS011;3942;51.518;6.912;2023-02-10T23:59:39;57.55;;;26.60;;
